sensor_id;sensor_type;location;lat;lon;timestamp;temperature;humidity
47022;DHT22;32779;52.264;6.154;2023-04-01T00:00:32;9.80;99.90
47022;DHT22;32779;52.264;6.154;2023-04-01T00:02:57;9.80;99.90
47022;DHT22;32779;52.264;6.154;2023-04-01T00:05:22;9.90;99.90
47022;DHT22;32779;52.264;6.154;2023-04-01T00:07:49;9.80;99.90
47022;DHT22;32779;52.264;6.154;2023-04-01T00:10:15;9.80;99.90
47022;DHT22;32779;52.264;6.154;2023-04-01T00:12:41;9.80;99.90
47022;DHT22;32779;52.264;6.154;2023-04-01T00:15:07;9.80;99.90
47022;DHT22;32779;52.264;6.154;2023-04-01T00:17:33;9.80;99.90
47022;DHT22;32779;52.264;6.154;2023-04-01T00:19:58;9.80;99.90
47022;DHT22;32779;52.264;6.154;2023-04-01T00:22:24;9.80;99.90
47022;DHT22;32779;52.264;6.154;2023-04-01T00:24:51;9.80;99.90
47022;DHT22;32779;52.264;6.154;2023-04-01T00:27:17;9.80;99.90
47022;DHT22;32779;52.264;6.154;2023-04-01T00:29:42;9.80;99.90
47022;DHT22;32779;52.264;6.154;2023-04-01T00:32:08;9.80;99.90
47022;DHT22;32779;52.264;6.154;2023-04-01T00:34:33;9.80;99.90
47022;DHT22;32779;52.264;6.154;2023-04-01T00:36:59;9.80;99.90
47022;DHT22;32779;52.264;6.154;2023-04-01T00:39:25;9.80;99.90
47022;DHT22;32779;52.264;6.154;2023-04-01T00:41:53;9.80;99.90
47022;DHT22;32779;52.264;6.154;2023-04-01T00:44:20;9.80;99.90
47022;DHT22;32779;52.264;6.154;2023-04-01T00:46:46;9.80;99.90
47022;DHT22;32779;52.264;6.154;2023-04-01T00:49:11;9.80;99.90
47022;DHT22;32779;52.264;6.154;2023-04-01T00:51:37;9.80;99.90
47022;DHT22;32779;52.264;6.154;2023-04-01T00:54:04;9.80;99.90
47022;DHT22;32779;52.264;6.154;2023-04-01T00:56:31;9.80;99.90
47022;DHT22;32779;52.264;6.154;2023-04-01T00:58:59;9.80;99.90
47022;DHT22;32779;52.264;6.154;2023-04-01T01:01:25;9.80;99.90
47022;DHT22;32779;52.264;6.154;2023-04-01T01:03:51;9.80;99.90
47022;DHT22;32779;52.264;6.154;2023-04-01T01:06:50;9.80;99.90
47022;DHT22;32779;52.264;6.154;2023-04-01T01:14:34;9.90;99.90
47022;DHT22;32779;52.264;6.154;2023-04-01T01:17:07;9.90;99.90
47022;DHT22;32779;52.264;6.154;2023-04-01T01:19:46;9.90;99.90
47022;DHT22;32779;52.264;6.154;2023-04-01T01:32:25;9.90;99.90
47022;DHT22;32779;52.264;6.154;2023-04-01T01:37:31;9.90;99.90
47022;DHT22;32779;52.264;6.154;2023-04-01T01:40:07;9.90;99.90
47022;DHT22;32779;52.264;6.154;2023-04-01T01:42:33;9.90;99.90
47022;DHT22;32779;52.264;6.154;2023-04-01T01:45:00;9.90;99.90
47022;DHT22;32779;52.264;6.154;2023-04-01T01:47:27;9.90;99.90
47022;DHT22;32779;52.264;6.154;2023-04-01T01:49:54;9.90;99.90
47022;DHT22;32779;52.264;6.154;2023-04-01T01:52:21;9.90;99.90
47022;DHT22;32779;52.264;6.154;2023-04-01T01:54:50;9.90;99.90
47022;DHT22;32779;52.264;6.154;2023-04-01T01:57:15;9.90;99.90
47022;DHT22;32779;52.264;6.154;2023-04-01T01:59:41;9.90;99.90
47022;DHT22;32779;52.264;6.154;2023-04-01T02:02:07;9.90;99.90
47022;DHT22;32779;52.264;6.154;2023-04-01T02:04:38;9.90;99.90
47022;DHT22;32779;52.264;6.154;2023-04-01T02:07:07;9.90;99.90
47022;DHT22;32779;52.264;6.154;2023-04-01T02:09:34;9.90;99.90
47022;DHT22;32779;52.264;6.154;2023-04-01T02:12:04;9.90;99.90
47022;DHT22;32779;52.264;6.154;2023-04-01T02:14:35;9.90;99.90
47022;DHT22;32779;52.264;6.154;2023-04-01T02:17:07;9.90;99.90
47022;DHT22;32779;52.264;6.154;2023-04-01T02:19:34;9.80;99.90
47022;DHT22;32779;52.264;6.154;2023-04-01T02:22:02;9.80;99.90
47022;DHT22;32779;52.264;6.154;2023-04-01T02:24:30;9.80;99.90
47022;DHT22;32779;52.264;6.154;2023-04-01T02:26:56;9.70;99.90
47022;DHT22;32779;52.264;6.154;2023-04-01T02:29:22;9.80;99.90
47022;DHT22;32779;52.264;6.154;2023-04-01T02:31:48;9.70;99.90
47022;DHT22;32779;52.264;6.154;2023-04-01T02:34:15;9.70;99.90
47022;DHT22;32779;52.264;6.154;2023-04-01T02:36:40;9.70;99.90
47022;DHT22;32779;52.264;6.154;2023-04-01T02:39:06;9.70;99.90
47022;DHT22;32779;52.264;6.154;2023-04-01T02:41:38;9.70;99.90
47022;DHT22;32779;52.264;6.154;2023-04-01T02:44:04;9.70;99.90
47022;DHT22;32779;52.264;6.154;2023-04-01T02:46:29;9.70;99.90
47022;DHT22;32779;52.264;6.154;2023-04-01T02:48:55;9.70;99.90
47022;DHT22;32779;52.264;6.154;2023-04-01T02:51:20;9.70;99.90
47022;DHT22;32779;52.264;6.154;2023-04-01T02:53:46;9.70;99.90
47022;DHT22;32779;52.264;6.154;2023-04-01T02:56:11;9.70;99.90
47022;DHT22;32779;52.264;6.154;2023-04-01T02:58:36;9.70;99.90
47022;DHT22;32779;52.264;6.154;2023-04-01T03:01:02;9.60;99.90
47022;DHT22;32779;52.264;6.154;2023-04-01T03:03:27;9.60;99.90
47022;DHT22;32779;52.264;6.154;2023-04-01T03:05:53;9.70;99.90
47022;DHT22;32779;52.264;6.154;2023-04-01T03:08:21;9.60;99.90
47022;DHT22;32779;52.264;6.154;2023-04-01T03:10:46;9.70;99.90
47022;DHT22;32779;52.264;6.154;2023-04-01T03:13:12;9.70;99.90
47022;DHT22;32779;52.264;6.154;2023-04-01T03:15:37;9.70;99.90
47022;DHT22;32779;52.264;6.154;2023-04-01T03:18:03;9.70;99.90
47022;DHT22;32779;52.264;6.154;2023-04-01T03:20:28;9.70;99.90
47022;DHT22;32779;52.264;6.154;2023-04-01T03:22:54;9.70;99.90
47022;DHT22;32779;52.264;6.154;2023-04-01T03:25:20;9.60;99.90
47022;DHT22;32779;52.264;6.154;2023-04-01T03:27:45;9.70;99.90
47022;DHT22;32779;52.264;6.154;2023-04-01T03:30:11;9.60;99.90
47022;DHT22;32779;52.264;6.154;2023-04-01T03:32:36;9.60;99.90
47022;DHT22;32779;52.264;6.154;2023-04-01T03:35:02;9.60;99.90
47022;DHT22;32779;52.264;6.154;2023-04-01T03:37:28;9.60;99.90
47022;DHT22;32779;52.264;6.154;2023-04-01T03:39:53;9.60;99.90
47022;DHT22;32779;52.264;6.154;2023-04-01T03:42:19;9.60;99.90
47022;DHT22;32779;52.264;6.154;2023-04-01T03:44:44;9.60;99.90
47022;DHT22;32779;52.264;6.154;2023-04-01T03:47:10;9.60;99.90
47022;DHT22;32779;52.264;6.154;2023-04-01T03:49:36;9.60;99.90
47022;DHT22;32779;52.264;6.154;2023-04-01T03:52:02;9.60;99.90
47022;DHT22;32779;52.264;6.154;2023-04-01T03:54:27;9.60;99.90
47022;DHT22;32779;52.264;6.154;2023-04-01T03:56:53;9.60;99.90
47022;DHT22;32779;52.264;6.154;2023-04-01T03:59:18;9.50;99.90
47022;DHT22;32779;52.264;6.154;2023-04-01T04:01:45;9.50;99.90
47022;DHT22;32779;52.264;6.154;2023-04-01T04:04:11;9.50;99.90
47022;DHT22;32779;52.264;6.154;2023-04-01T04:06:38;9.50;99.90
47022;DHT22;32779;52.264;6.154;2023-04-01T04:09:03;9.50;99.90
47022;DHT22;32779;52.264;6.154;2023-04-01T04:11:30;9.50;99.90
47022;DHT22;32779;52.264;6.154;2023-04-01T04:13:55;9.50;99.90
47022;DHT22;32779;52.264;6.154;2023-04-01T04:16:21;9.60;99.90
47022;DHT22;32779;52.264;6.154;2023-04-01T04:18:46;9.50;99.90
47022;DHT22;32779;52.264;6.154;2023-04-01T04:21:13;9.60;99.90
47022;DHT22;32779;52.264;6.154;2023-04-01T04:23:39;9.50;99.90
47022;DHT22;32779;52.264;6.154;2023-04-01T04:26:06;9.50;99.90
47022;DHT22;32779;52.264;6.154;2023-04-01T04:28:31;9.60;99.90
47022;DHT22;32779;52.264;6.154;2023-04-01T04:30:57;9.60;99.90
47022;DHT22;32779;52.264;6.154;2023-04-01T04:33:22;9.50;99.90
47022;DHT22;32779;52.264;6.154;2023-04-01T04:35:48;9.50;99.90
47022;DHT22;32779;52.264;6.154;2023-04-01T04:38:14;9.60;99.90
47022;DHT22;32779;52.264;6.154;2023-04-01T04:40:40;9.60;99.90
47022;DHT22;32779;52.264;6.154;2023-04-01T04:43:06;9.60;99.90
47022;DHT22;32779;52.264;6.154;2023-04-01T04:45:32;9.60;99.90
47022;DHT22;32779;52.264;6.154;2023-04-01T04:47:57;9.60;99.90
47022;DHT22;32779;52.264;6.154;2023-04-01T04:50:23;9.60;99.90
47022;DHT22;32779;52.264;6.154;2023-04-01T04:52:49;9.60;99.90
47022;DHT22;32779;52.264;6.154;2023-04-01T04:55:14;9.60;99.90
47022;DHT22;32779;52.264;6.154;2023-04-01T04:57:40;9.60;99.90
47022;DHT22;32779;52.264;6.154;2023-04-01T05:00:06;9.60;99.90
47022;DHT22;32779;52.264;6.154;2023-04-01T05:02:32;9.60;99.90
47022;DHT22;32779;52.264;6.154;2023-04-01T05:04:58;9.60;99.90
47022;DHT22;32779;52.264;6.154;2023-04-01T05:07:23;9.60;99.90
47022;DHT22;32779;52.264;6.154;2023-04-01T05:09:49;9.60;99.90
47022;DHT22;32779;52.264;6.154;2023-04-01T05:12:14;9.50;99.90
47022;DHT22;32779;52.264;6.154;2023-04-01T05:14:40;9.60;99.90
47022;DHT22;32779;52.264;6.154;2023-04-01T05:17:09;9.50;99.90
47022;DHT22;32779;52.264;6.154;2023-04-01T05:19:35;9.50;99.90
47022;DHT22;32779;52.264;6.154;2023-04-01T05:22:01;9.50;99.90
47022;DHT22;32779;52.264;6.154;2023-04-01T05:24:26;9.40;99.90
47022;DHT22;32779;52.264;6.154;2023-04-01T05:26:52;9.40;99.90
47022;DHT22;32779;52.264;6.154;2023-04-01T05:29:17;9.40;99.90
47022;DHT22;32779;52.264;6.154;2023-04-01T05:31:43;9.30;99.90
47022;DHT22;32779;52.264;6.154;2023-04-01T05:34:08;9.30;99.90
47022;DHT22;32779;52.264;6.154;2023-04-01T05:36:34;9.30;99.90
47022;DHT22;32779;52.264;6.154;2023-04-01T05:39:01;9.30;99.90
47022;DHT22;32779;52.264;6.154;2023-04-01T05:41:26;9.30;99.90
47022;DHT22;32779;52.264;6.154;2023-04-01T05:43:52;9.40;99.90
47022;DHT22;32779;52.264;6.154;2023-04-01T05:46:17;9.40;99.90
47022;DHT22;32779;52.264;6.154;2023-04-01T05:48:43;9.30;99.90
47022;DHT22;32779;52.264;6.154;2023-04-01T05:51:12;9.40;99.90
47022;DHT22;32779;52.264;6.154;2023-04-01T05:53:38;9.40;99.90
47022;DHT22;32779;52.264;6.154;2023-04-01T05:56:04;9.30;99.90
47022;DHT22;32779;52.264;6.154;2023-04-01T05:58:29;9.40;99.90
47022;DHT22;32779;52.264;6.154;2023-04-01T06:01:05;9.40;99.90
47022;DHT22;32779;52.264;6.154;2023-04-01T06:03:31;9.40;99.90
47022;DHT22;32779;52.264;6.154;2023-04-01T06:05:57;9.40;99.90
47022;DHT22;32779;52.264;6.154;2023-04-01T06:08:23;9.40;99.90
47022;DHT22;32779;52.264;6.154;2023-04-01T06:11:00;9.40;99.90
47022;DHT22;32779;52.264;6.154;2023-04-01T06:16:07;9.50;99.90
47022;DHT22;32779;52.264;6.154;2023-04-01T06:31:17;9.60;99.90
47022;DHT22;32779;52.264;6.154;2023-04-01T06:33:48;9.70;99.90
47022;DHT22;32779;52.264;6.154;2023-04-01T06:36:23;9.80;99.90
47022;DHT22;32779;52.264;6.154;2023-04-01T06:39:03;9.80;99.90
47022;DHT22;32779;52.264;6.154;2023-04-01T06:49:44;10.00;99.90
47022;DHT22;32779;52.264;6.154;2023-04-01T06:54:47;10.10;99.90
47022;DHT22;32779;52.264;6.154;2023-04-01T06:57:29;10.20;99.90
47022;DHT22;32779;52.264;6.154;2023-04-01T06:59:57;10.20;99.90
47022;DHT22;32779;52.264;6.154;2023-04-01T07:02:32;10.20;99.90
47022;DHT22;32779;52.264;6.154;2023-04-01T07:04:59;10.30;99.90
47022;DHT22;32779;52.264;6.154;2023-04-01T07:10:01;10.30;99.90
47022;DHT22;32779;52.264;6.154;2023-04-01T07:12:31;10.30;99.90
47022;DHT22;32779;52.264;6.154;2023-04-01T07:15:04;10.20;99.90
47022;DHT22;32779;52.264;6.154;2023-04-01T07:17:32;10.20;99.90
47022;DHT22;32779;52.264;6.154;2023-04-01T07:20:00;10.30;99.90
47022;DHT22;32779;52.264;6.154;2023-04-01T07:23:01;10.30;99.90
47022;DHT22;32779;52.264;6.154;2023-04-01T07:25:20;10.30;99.90
47022;DHT22;32779;52.264;6.154;2023-04-01T07:27:46;10.30;99.90
47022;DHT22;32779;52.264;6.154;2023-04-01T07:30:19;10.30;99.90
47022;DHT22;32779;52.264;6.154;2023-04-01T07:35:47;10.40;99.90
47022;DHT22;32779;52.264;6.154;2023-04-01T07:38:34;10.40;99.90
47022;DHT22;32779;52.264;6.154;2023-04-01T07:44:01;10.50;99.90
47022;DHT22;32779;52.264;6.154;2023-04-01T07:46:44;10.50;99.90
47022;DHT22;32779;52.264;6.154;2023-04-01T07:51:55;10.60;99.90
47022;DHT22;32779;52.264;6.154;2023-04-01T07:54:42;10.60;99.90
47022;DHT22;32779;52.264;6.154;2023-04-01T07:57:20;10.60;99.90
47022;DHT22;32779;52.264;6.154;2023-04-01T08:04:48;10.70;99.90
47022;DHT22;32779;52.264;6.154;2023-04-01T08:07:28;10.80;99.90
47022;DHT22;32779;52.264;6.154;2023-04-01T08:12:27;10.90;99.90
47022;DHT22;32779;52.264;6.154;2023-04-01T08:18:36;11.00;99.90
47022;DHT22;32779;52.264;6.154;2023-04-01T08:23:06;11.10;99.90
47022;DHT22;32779;52.264;6.154;2023-04-01T08:25:33;11.10;99.90
47022;DHT22;32779;52.264;6.154;2023-04-01T08:28:03;11.10;99.90
47022;DHT22;32779;52.264;6.154;2023-04-01T08:33:08;11.10;99.90
47022;DHT22;32779;52.264;6.154;2023-04-01T08:35:38;11.10;99.90
47022;DHT22;32779;52.264;6.154;2023-04-01T08:38:09;11.20;99.90
47022;DHT22;32779;52.264;6.154;2023-04-01T08:40:55;11.20;99.90
47022;DHT22;32779;52.264;6.154;2023-04-01T08:45:55;11.20;99.90
47022;DHT22;32779;52.264;6.154;2023-04-01T08:51:01;11.40;99.90
47022;DHT22;32779;52.264;6.154;2023-04-01T08:53:41;11.40;99.90
47022;DHT22;32779;52.264;6.154;2023-04-01T08:56:14;11.40;99.90
47022;DHT22;32779;52.264;6.154;2023-04-01T09:04:17;11.80;99.90
47022;DHT22;32779;52.264;6.154;2023-04-01T09:14:17;12.00;99.90
47022;DHT22;32779;52.264;6.154;2023-04-01T09:16:51;12.20;99.90
47022;DHT22;32779;52.264;6.154;2023-04-01T09:19:28;12.20;99.90
47022;DHT22;32779;52.264;6.154;2023-04-01T09:22:18;12.30;99.90
47022;DHT22;32779;52.264;6.154;2023-04-01T09:27:34;12.40;99.90
47022;DHT22;32779;52.264;6.154;2023-04-01T09:35:20;12.50;99.90
47022;DHT22;32779;52.264;6.154;2023-04-01T09:40:17;12.70;99.90
47022;DHT22;32779;52.264;6.154;2023-04-01T09:53:11;13.00;99.90
47022;DHT22;32779;52.264;6.154;2023-04-01T10:01:12;13.00;99.90
47022;DHT22;32779;52.264;6.154;2023-04-01T10:03:53;13.00;99.90
47022;DHT22;32779;52.264;6.154;2023-04-01T10:17:08;13.10;99.90
47022;DHT22;32779;52.264;6.154;2023-04-01T10:30:19;13.30;99.90
47022;DHT22;32779;52.264;6.154;2023-04-01T10:40:44;13.40;99.90
47022;DHT22;32779;52.264;6.154;2023-04-01T10:43:40;13.30;99.90
47022;DHT22;32779;52.264;6.154;2023-04-01T10:56:43;13.10;99.90
47022;DHT22;32779;52.264;6.154;2023-04-01T11:16:59;13.20;99.90
47022;DHT22;32779;52.264;6.154;2023-04-01T11:22:21;13.40;99.90
47022;DHT22;32779;52.264;6.154;2023-04-01T12:03:37;12.10;99.90
47022;DHT22;32779;52.264;6.154;2023-04-01T12:06:16;12.00;99.90
47022;DHT22;32779;52.264;6.154;2023-04-01T12:13:53;12.10;99.90
47022;DHT22;32779;52.264;6.154;2023-04-01T12:16:36;12.10;99.90
47022;DHT22;32779;52.264;6.154;2023-04-01T12:19:09;12.00;99.90
47022;DHT22;32779;52.264;6.154;2023-04-01T12:26:55;12.00;99.90
47022;DHT22;32779;52.264;6.154;2023-04-01T12:42:51;12.10;99.90
47022;DHT22;32779;52.264;6.154;2023-04-01T12:53:29;12.30;99.90
47022;DHT22;32779;52.264;6.154;2023-04-01T12:55:49;12.40;99.90
47022;DHT22;32779;52.264;6.154;2023-04-01T13:06:07;12.50;99.90
47022;DHT22;32779;52.264;6.154;2023-04-01T13:08:49;12.50;99.90
47022;DHT22;32779;52.264;6.154;2023-04-01T13:16:38;12.40;99.90
47022;DHT22;32779;52.264;6.154;2023-04-01T13:21:50;12.40;99.90
47022;DHT22;32779;52.264;6.154;2023-04-01T13:29:33;12.30;99.90
47022;DHT22;32779;52.264;6.154;2023-04-01T13:32:18;12.30;99.90
47022;DHT22;32779;52.264;6.154;2023-04-01T13:37:47;12.20;99.90
47022;DHT22;32779;52.264;6.154;2023-04-01T13:48:27;12.10;99.90
47022;DHT22;32779;52.264;6.154;2023-04-01T13:50:57;12.20;99.90
47022;DHT22;32779;52.264;6.154;2023-04-01T13:53:40;12.20;99.90
47022;DHT22;32779;52.264;6.154;2023-04-01T13:56:23;12.20;99.90
47022;DHT22;32779;52.264;6.154;2023-04-01T13:59:01;12.10;99.90
47022;DHT22;32779;52.264;6.154;2023-04-01T14:01:41;12.10;99.90
47022;DHT22;32779;52.264;6.154;2023-04-01T14:04:23;12.20;99.90
47022;DHT22;32779;52.264;6.154;2023-04-01T14:07:08;12.20;99.90
47022;DHT22;32779;52.264;6.154;2023-04-01T14:12:46;12.10;99.90
47022;DHT22;32779;52.264;6.154;2023-04-01T14:15:17;12.10;99.90
47022;DHT22;32779;52.264;6.154;2023-04-01T14:28:18;11.90;99.90
47022;DHT22;32779;52.264;6.154;2023-04-01T14:33:26;11.70;99.90
47022;DHT22;32779;52.264;6.154;2023-04-01T14:38:42;11.50;99.90
47022;DHT22;32779;52.264;6.154;2023-04-01T14:41:20;11.40;99.90
47022;DHT22;32779;52.264;6.154;2023-04-01T14:49:02;11.30;99.90
47022;DHT22;32779;52.264;6.154;2023-04-01T14:51:30;11.20;99.90
47022;DHT22;32779;52.264;6.154;2023-04-01T14:53:59;11.10;99.90
47022;DHT22;32779;52.264;6.154;2023-04-01T14:56:35;11.10;99.90
47022;DHT22;32779;52.264;6.154;2023-04-01T14:59:04;11.20;99.90
47022;DHT22;32779;52.264;6.154;2023-04-01T15:01:35;11.10;99.90
47022;DHT22;32779;52.264;6.154;2023-04-01T15:11:50;11.10;99.90
47022;DHT22;32779;52.264;6.154;2023-04-01T15:19:42;10.90;99.90
47022;DHT22;32779;52.264;6.154;2023-04-01T15:43:11;10.80;99.90
47022;DHT22;32779;52.264;6.154;2023-04-01T15:45:41;10.80;99.90
47022;DHT22;32779;52.264;6.154;2023-04-01T15:50:43;10.80;99.90
47022;DHT22;32779;52.264;6.154;2023-04-01T15:55:38;10.70;99.90
47022;DHT22;32779;52.264;6.154;2023-04-01T16:00:42;10.70;99.90
47022;DHT22;32779;52.264;6.154;2023-04-01T16:03:17;10.60;99.90
47022;DHT22;32779;52.264;6.154;2023-04-01T16:16:09;10.30;99.90
47022;DHT22;32779;52.264;6.154;2023-04-01T16:21:08;10.30;99.90
47022;DHT22;32779;52.264;6.154;2023-04-01T16:26:15;10.30;99.90
47022;DHT22;32779;52.264;6.154;2023-04-01T16:29:06;10.20;99.90
47022;DHT22;32779;52.264;6.154;2023-04-01T16:34:06;10.10;99.90
47022;DHT22;32779;52.264;6.154;2023-04-01T16:39:08;10.10;99.90
47022;DHT22;32779;52.264;6.154;2023-04-01T16:41:38;10.10;99.90
47022;DHT22;32779;52.264;6.154;2023-04-01T16:44:19;10.10;99.90
47022;DHT22;32779;52.264;6.154;2023-04-01T16:47:07;10.00;99.90
47022;DHT22;32779;52.264;6.154;2023-04-01T16:49:37;9.90;99.90
47022;DHT22;32779;52.264;6.154;2023-04-01T17:01:16;9.80;99.90
47022;DHT22;32779;52.264;6.154;2023-04-01T17:03:45;9.80;99.90
47022;DHT22;32779;52.264;6.154;2023-04-01T17:06:25;9.70;99.90
47022;DHT22;32779;52.264;6.154;2023-04-01T17:22:33;9.50;99.90
47022;DHT22;32779;52.264;6.154;2023-04-01T17:30:41;9.40;99.90
47022;DHT22;32779;52.264;6.154;2023-04-01T17:42:18;9.20;99.90
47022;DHT22;32779;52.264;6.154;2023-04-01T17:45:04;9.10;99.90
47022;DHT22;32779;52.264;6.154;2023-04-01T17:47:59;9.10;99.90
47022;DHT22;32779;52.264;6.154;2023-04-01T17:50:52;9.10;99.90
47022;DHT22;32779;52.264;6.154;2023-04-01T17:56:28;9.10;99.90
47022;DHT22;32779;52.264;6.154;2023-04-01T18:07:18;9.00;99.90
47022;DHT22;32779;52.264;6.154;2023-04-01T18:10:04;9.00;99.90
47022;DHT22;32779;52.264;6.154;2023-04-01T18:23:45;8.80;99.90
47022;DHT22;32779;52.264;6.154;2023-04-01T18:26:34;8.80;99.90
47022;DHT22;32779;52.264;6.154;2023-04-01T18:31:54;8.70;99.90
47022;DHT22;32779;52.264;6.154;2023-04-01T18:37:19;8.70;99.90
47022;DHT22;32779;52.264;6.154;2023-04-01T18:43:20;8.70;99.90
47022;DHT22;32779;52.264;6.154;2023-04-01T18:45:57;8.60;99.90
47022;DHT22;32779;52.264;6.154;2023-04-01T18:54:30;8.60;99.90
47022;DHT22;32779;52.264;6.154;2023-04-01T18:57:18;8.50;99.90
47022;DHT22;32779;52.264;6.154;2023-04-01T19:00:03;8.50;99.90
47022;DHT22;32779;52.264;6.154;2023-04-01T19:02:45;8.40;99.90
47022;DHT22;32779;52.264;6.154;2023-04-01T19:05:26;8.30;99.90
47022;DHT22;32779;52.264;6.154;2023-04-01T19:07:55;8.30;99.90
47022;DHT22;32779;52.264;6.154;2023-04-01T19:18:35;8.20;99.90
47022;DHT22;32779;52.264;6.154;2023-04-01T19:26:21;8.20;99.90
47022;DHT22;32779;52.264;6.154;2023-04-01T19:32:23;8.10;99.90
47022;DHT22;32779;52.264;6.154;2023-04-01T19:37:45;8.00;99.90
47022;DHT22;32779;52.264;6.154;2023-04-01T19:43:39;7.90;99.90
47022;DHT22;32779;52.264;6.154;2023-04-01T19:54:12;7.80;99.90
47022;DHT22;32779;52.264;6.154;2023-04-01T20:04:48;7.80;99.90
47022;DHT22;32779;52.264;6.154;2023-04-01T20:07:35;7.80;99.90
47022;DHT22;32779;52.264;6.154;2023-04-01T20:10:30;7.70;99.90
47022;DHT22;32779;52.264;6.154;2023-04-01T20:16:05;7.70;99.90
47022;DHT22;32779;52.264;6.154;2023-04-01T20:18:36;7.70;99.90
47022;DHT22;32779;52.264;6.154;2023-04-01T20:21:15;7.60;99.90
47022;DHT22;32779;52.264;6.154;2023-04-01T20:23:50;7.60;99.90
47022;DHT22;32779;52.264;6.154;2023-04-01T20:26:38;7.60;99.90
47022;DHT22;32779;52.264;6.154;2023-04-01T20:37:30;7.50;99.90
47022;DHT22;32779;52.264;6.154;2023-04-01T20:45:50;7.40;99.90
47022;DHT22;32779;52.264;6.154;2023-04-01T20:48:36;7.40;99.90
47022;DHT22;32779;52.264;6.154;2023-04-01T20:51:13;7.40;99.90
47022;DHT22;32779;52.264;6.154;2023-04-01T20:56:34;7.40;99.90
47022;DHT22;32779;52.264;6.154;2023-04-01T21:02:19;7.30;99.90
47022;DHT22;32779;52.264;6.154;2023-04-01T21:05:09;7.30;99.90
47022;DHT22;32779;52.264;6.154;2023-04-01T21:07:58;7.30;99.90
47022;DHT22;32779;52.264;6.154;2023-04-01T21:10:53;7.30;99.90
47022;DHT22;32779;52.264;6.154;2023-04-01T21:16:41;7.20;99.90
47022;DHT22;32779;52.264;6.154;2023-04-01T21:22:36;7.10;99.90
47022;DHT22;32779;52.264;6.154;2023-04-01T21:28:16;7.00;99.90
47022;DHT22;32779;52.264;6.154;2023-04-01T21:33:44;7.00;99.90
47022;DHT22;32779;52.264;6.154;2023-04-01T21:41:52;6.90;99.90
47022;DHT22;32779;52.264;6.154;2023-04-01T21:44:59;6.90;99.90
47022;DHT22;32779;52.264;6.154;2023-04-01T22:02:01;6.80;99.90
47022;DHT22;32779;52.264;6.154;2023-04-01T22:07:21;6.80;99.90
47022;DHT22;32779;52.264;6.154;2023-04-01T22:23:23;6.70;99.90
47022;DHT22;32779;52.264;6.154;2023-04-01T22:31:19;6.50;99.90
47022;DHT22;32779;52.264;6.154;2023-04-01T22:39:50;6.50;99.90
47022;DHT22;32779;52.264;6.154;2023-04-01T22:55:59;6.40;99.90
47022;DHT22;32779;52.264;6.154;2023-04-01T22:58:34;6.40;99.90
47022;DHT22;32779;52.264;6.154;2023-04-01T23:01:06;6.40;99.90
47022;DHT22;32779;52.264;6.154;2023-04-01T23:03:38;6.40;99.90
47022;DHT22;32779;52.264;6.154;2023-04-01T23:06:05;6.40;99.90
47022;DHT22;32779;52.264;6.154;2023-04-01T23:31:32;6.20;99.90
47022;DHT22;32779;52.264;6.154;2023-04-01T23:34:17;6.10;99.90
47022;DHT22;32779;52.264;6.154;2023-04-01T23:36:46;6.10;99.90
47022;DHT22;32779;52.264;6.154;2023-04-01T23:39:34;6.10;99.90
47022;DHT22;32779;52.264;6.154;2023-04-01T23:42:28;6.10;99.90
47022;DHT22;32779;52.264;6.154;2023-04-01T23:44:58;6.10;99.90
47022;DHT22;32779;52.264;6.154;2023-04-01T23:47:32;6.10;99.90
47022;DHT22;32779;52.264;6.154;2023-04-01T23:50:01;6.10;99.90
47022;DHT22;32779;52.264;6.154;2023-04-01T23:52:31;6.10;99.90
47022;DHT22;32779;52.264;6.154;2023-04-01T23:55:25;6.10;99.90
47022;DHT22;32779;52.264;6.154;2023-04-01T23:58:05;6.00;99.90
